Marion, CT (06444)

5:09 AM EDT on March 27, 2015 (GMT -0400)
Rogers Orchards Sunnymount Farm | | Change Station
CLOSE
Current Station
Personal Weather Station
Location: Southington, CT
Elevation: 666 ft
Nearby Weather Stations

Elev 666 ft 41.56 °N, 72.94 °W | Updated 53 seconds ago

Rain
Rain
37.8 °F
Feels Like 34 °F
N
5.0
Wind Variable Wind from West
Gusts 11.0 mph

Today
High -- | Low -- °F
--% Chance of Precip.
Yesterday
High -- | Low -- °F
Precip. -- in
6:43 AM 7:11 PM
Waxing Crescent, 51% visible
Pressure 29.70 in
Visibility 8.0 miles
Clouds Mostly Cloudy 2200 ft
Overcast 2600 ft
Windchill 34 °F
Dew Point 37 °F
Humidity 95%
Rainfall 0.09 in
Snow Depth Not available.
UV 0 out of 12
Pollen 4.60 out of 12
Air Quality Not available.
Flu Activity Not available.
METAR KMMK 270853Z AUTO 35004KT 8SM -RA BKN022 OVC026 04/03 A2969 RMK AO2 SLP055 P0001 60003 T00440028 51014 TSNO

More Conditions Fewer Conditions

Pressure 29.70 in
Visibility 8.0 miles
Clouds Mostly Cloudy 2200 ft
Overcast 2600 ft
Windchill 34 °F
Dew Point 37 °F
Humidity 95%
Rainfall 0.09 in
Snow Depth Not available.
UV 0 out of 12
Pollen 4.60 out of 12
Air Quality Not available.
Flu Activity Not available.
METAR KMMK 270853Z AUTO 35004KT 8SM -RA BKN022 OVC026 04/03 A2969 RMK AO2 SLP055 P0001 60003 T00440028 51014 TSNO

More Conditions Fewer Conditions

10-Day Weather Forecast

Almanac

Astronomy

Mar. 27, 2015 Rise Set
Actual Time
Civil Twilight
Nautical Twilight
Astronomical Twilight
Moon
Length of Visible Light
Length of Day
Tomorrow will be .
, % of the Moon is Illuminated

Today's Extremes

State Highs State Lows

Community

WunderPhotos

Upload Photos

1,808,705 photos uploaded!

WunderBlogs® & News

Nearby

Air Quality

  Air Quality AQ Index Pollutant
Not available.

Snow Depth

Station Depth Elevation

Earthquake Activity

City Distance Mag. Time & Date
Minimum magnitude displayed is 2.5.

Coastal Water Temperatures

Place Temperature

Stations

Nearby Weather Stations

Station Location Temp. Windchill Dew Point Humidity Wind Precip. Elev Updated Type